EIN448 EIDW-LGIR
Flight info
| Callsign | EIN448 |
|---|---|
| Flight time | N/A |
| Altitude | 37000 |
| Route | ENDEQ3J ENDEQ Q36 ALAVA Z195 MALUD UL975 WAL M16 DOLAS L603 LAMSO DCT EVELI DCT OTMEC DCT MISGO DCT DODEN DCT NEGIX DCT DINKU M867 XERUM DCT BAVAX DCT RADIZ DCT NIPEL DCT ELTIB DCT GLOMY DCT PETAK DCT PINDO UL607 GIVIS T514 XAVIS |
| Aircraft | A320/M-SDE3FGHIRWY/LB1 |
Departure
| Time | N/A |
|---|---|
| Airport | Dublin Airport (EIDW) |
Arrival
| Time | 2026-04-27 18:50 |
|---|---|
| Airport | Heraklion International Nikos Kazantzakis Airport (LGIR) |
| Time | Latitude | Longitude | Altitude | Speed | Heading |
|---|---|---|---|---|---|
| 2026-04-27 18:12 | 38.39288 | 23.27233 | 37158 ft | 453 kts | 142° |
| 2026-04-27 18:13 | 38.34452 | 23.32383 | 37164 ft | 453 kts | 142° |
| 2026-04-27 18:13 | 38.29647 | 23.37490 | 37157 ft | 453 kts | 142° |
| 2026-04-27 18:14 | 38.24808 | 23.42618 | 37150 ft | 453 kts | 142° |
| 2026-04-27 18:14 | 38.19966 | 23.47736 | 37096 ft | 452 kts | 142° |
| 2026-04-27 18:15 | 38.15125 | 23.52855 | 37083 ft | 453 kts | 142° |
| 2026-04-27 18:15 | 38.10287 | 23.57964 | 37077 ft | 453 kts | 142° |
| 2026-04-27 18:16 | 38.05440 | 23.63075 | 37080 ft | 453 kts | 142° |
| 2026-04-27 18:16 | 38.00595 | 23.68164 | 37088 ft | 453 kts | 142° |
| 2026-04-27 18:17 | 37.95741 | 23.73251 | 37116 ft | 453 kts | 142° |
| 2026-04-27 18:17 | 37.90883 | 23.78339 | 37109 ft | 453 kts | 142° |
| 2026-04-27 18:18 | 37.86466 | 23.84046 | 37110 ft | 456 kts | 131° |
| 2026-04-27 18:18 | 37.84236 | 23.86867 | 37104 ft | 452 kts | 145° |
| 2026-04-27 18:18 | 37.81709 | 23.89226 | 37114 ft | 451 kts | 146° |
| 2026-04-27 18:19 | 37.76629 | 23.93898 | 37111 ft | 451 kts | 146° |
| 2026-04-27 18:19 | 37.71538 | 23.98547 | 37103 ft | 452 kts | 146° |
| 2026-04-27 18:20 | 37.66451 | 24.03190 | 37102 ft | 452 kts | 146° |
| 2026-04-27 18:20 | 37.61359 | 24.07840 | 37100 ft | 452 kts | 146° |
| 2026-04-27 18:21 | 37.56300 | 24.12462 | 37107 ft | 452 kts | 146° |
| 2026-04-27 18:21 | 37.51197 | 24.17104 | 37104 ft | 453 kts | 146° |
| 2026-04-27 18:22 | 37.46090 | 24.21745 | 37106 ft | 453 kts | 146° |
| 2026-04-27 18:22 | 37.40977 | 24.26379 | 37095 ft | 453 kts | 147° |
| 2026-04-27 18:23 | 37.35857 | 24.31014 | 37098 ft | 454 kts | 147° |
| 2026-04-27 18:23 | 37.31599 | 24.34861 | 37096 ft | 454 kts | 147° |
| 2026-04-27 18:24 | 37.26466 | 24.39489 | 37091 ft | 454 kts | 147° |
| 2026-04-27 18:24 | 37.21328 | 24.44111 | 37094 ft | 454 kts | 147° |
| 2026-04-27 18:25 | 37.16186 | 24.48736 | 37088 ft | 455 kts | 147° |
| 2026-04-27 18:25 | 37.10721 | 24.52561 | 37083 ft | 449 kts | 160° |
| 2026-04-27 18:26 | 37.04960 | 24.55645 | 37078 ft | 451 kts | 160° |
| 2026-04-27 18:26 | 37.02064 | 24.57191 | 36651 ft | 455 kts | 160° |
| 2026-04-27 18:26 | 36.99143 | 24.58744 | 35863 ft | 457 kts | 160° |
| 2026-04-27 18:27 | 36.96186 | 24.60308 | 34856 ft | 465 kts | 160° |
| 2026-04-27 18:27 | 36.93212 | 24.61882 | 34239 ft | 462 kts | 159° |
| 2026-04-27 18:27 | 36.90263 | 24.63447 | 33639 ft | 458 kts | 159° |
| 2026-04-27 18:27 | 36.87347 | 24.65003 | 33086 ft | 453 kts | 159° |
| 2026-04-27 18:28 | 36.84462 | 24.66542 | 32540 ft | 449 kts | 159° |
| 2026-04-27 18:28 | 36.81604 | 24.68061 | 32000 ft | 444 kts | 159° |
| 2026-04-27 18:28 | 36.78771 | 24.69563 | 31471 ft | 440 kts | 159° |
| 2026-04-27 18:28 | 36.75962 | 24.71050 | 30955 ft | 437 kts | 159° |
| 2026-04-27 18:29 | 36.73176 | 24.72522 | 30448 ft | 433 kts | 159° |
| 2026-04-27 18:29 | 36.70450 | 24.73962 | 29916 ft | 429 kts | 159° |
| 2026-04-27 18:29 | 36.67682 | 24.75424 | 29417 ft | 424 kts | 159° |
| 2026-04-27 18:29 | 36.64980 | 24.76848 | 28963 ft | 418 kts | 159° |
| 2026-04-27 18:30 | 36.62314 | 24.78250 | 28490 ft | 413 kts | 159° |
| 2026-04-27 18:30 | 36.59684 | 24.79632 | 28032 ft | 409 kts | 159° |
| 2026-04-27 18:30 | 36.57074 | 24.81005 | 27576 ft | 405 kts | 159° |
| 2026-04-27 18:30 | 36.54522 | 24.82347 | 27122 ft | 402 kts | 159° |
| 2026-04-27 18:31 | 36.51955 | 24.83694 | 26646 ft | 399 kts | 159° |
| 2026-04-27 18:31 | 36.49403 | 24.85035 | 26168 ft | 397 kts | 159° |
| 2026-04-27 18:31 | 36.46865 | 24.86368 | 25683 ft | 395 kts | 159° |
| 2026-04-27 18:31 | 36.44339 | 24.87695 | 25192 ft | 393 kts | 159° |
| 2026-04-27 18:32 | 36.41822 | 24.89016 | 24691 ft | 392 kts | 159° |
| 2026-04-27 18:32 | 36.39312 | 24.90329 | 24182 ft | 391 kts | 159° |
| 2026-04-27 18:32 | 36.36808 | 24.91637 | 23671 ft | 390 kts | 159° |
| 2026-04-27 18:32 | 36.34308 | 24.92942 | 23103 ft | 389 kts | 159° |
| 2026-04-27 18:33 | 36.31827 | 24.94240 | 22619 ft | 385 kts | 159° |
| 2026-04-27 18:33 | 36.29364 | 24.95527 | 22108 ft | 383 kts | 159° |
| 2026-04-27 18:33 | 36.26919 | 24.96804 | 21635 ft | 380 kts | 159° |
| 2026-04-27 18:33 | 36.24491 | 24.98070 | 21160 ft | 377 kts | 159° |
| 2026-04-27 18:34 | 36.22081 | 24.99327 | 20677 ft | 375 kts | 159° |
| 2026-04-27 18:34 | 36.19691 | 25.00570 | 20224 ft | 372 kts | 159° |
| 2026-04-27 18:34 | 36.17311 | 25.01806 | 19794 ft | 369 kts | 159° |
| 2026-04-27 18:34 | 36.14956 | 25.03030 | 19368 ft | 366 kts | 159° |
| 2026-04-27 18:35 | 36.12612 | 25.04248 | 18917 ft | 364 kts | 159° |
| 2026-04-27 18:35 | 36.10287 | 25.05457 | 18452 ft | 363 kts | 159° |
| 2026-04-27 18:35 | 36.07984 | 25.06653 | 18009 ft | 355 kts | 158° |
| 2026-04-27 18:35 | 36.05743 | 25.07817 | 17472 ft | 343 kts | 158° |
| 2026-04-27 18:36 | 36.03593 | 25.08936 | 17068 ft | 328 kts | 158° |
| 2026-04-27 18:36 | 36.01505 | 25.10020 | 16677 ft | 325 kts | 158° |
| 2026-04-27 18:36 | 35.99424 | 25.11098 | 16285 ft | 324 kts | 158° |
| 2026-04-27 18:36 | 35.97348 | 25.12174 | 15900 ft | 323 kts | 158° |
| 2026-04-27 18:37 | 35.95274 | 25.13247 | 15513 ft | 323 kts | 158° |
| 2026-04-27 18:37 | 35.93204 | 25.14316 | 15129 ft | 322 kts | 158° |
| 2026-04-27 18:37 | 35.91134 | 25.15383 | 14744 ft | 322 kts | 158° |
| 2026-04-27 18:37 | 35.89066 | 25.16446 | 14358 ft | 322 kts | 158° |
| 2026-04-27 18:38 | 35.87000 | 25.17510 | 13974 ft | 322 kts | 158° |
| 2026-04-27 18:38 | 35.84939 | 25.18573 | 13562 ft | 321 kts | 158° |
| 2026-04-27 18:38 | 35.82883 | 25.19635 | 13165 ft | 320 kts | 158° |
| 2026-04-27 18:38 | 35.80836 | 25.20689 | 12771 ft | 318 kts | 158° |
| 2026-04-27 18:39 | 35.78799 | 25.21736 | 12379 ft | 316 kts | 158° |
| 2026-04-27 18:39 | 35.76771 | 25.22776 | 11978 ft | 315 kts | 158° |
| 2026-04-27 18:39 | 35.74751 | 25.23813 | 11579 ft | 314 kts | 158° |
| 2026-04-27 18:39 | 35.72738 | 25.24848 | 11174 ft | 313 kts | 158° |
| 2026-04-27 18:40 | 35.70727 | 25.25882 | 10771 ft | 313 kts | 158° |
| 2026-04-27 18:40 | 35.68722 | 25.26914 | 10359 ft | 312 kts | 158° |
| 2026-04-27 18:40 | 35.66720 | 25.27945 | 9960 ft | 310 kts | 158° |
| 2026-04-27 18:40 | 35.64774 | 25.28944 | 9511 ft | 298 kts | 158° |
| 2026-04-27 18:41 | 35.62909 | 25.29897 | 9210 ft | 281 kts | 158° |
| 2026-04-27 18:41 | 35.61140 | 25.30803 | 8783 ft | 272 kts | 157° |
| 2026-04-27 18:41 | 35.59405 | 25.31693 | 8330 ft | 269 kts | 157° |
| 2026-04-27 18:41 | 35.57684 | 25.32576 | 7922 ft | 267 kts | 157° |
| 2026-04-27 18:42 | 35.55970 | 25.33455 | 7532 ft | 268 kts | 158° |
| 2026-04-27 18:42 | 35.54825 | 25.34041 | 7211 ft | 270 kts | 158° |
| 2026-04-27 18:42 | 35.52537 | 25.35210 | 6647 ft | 264 kts | 158° |
| 2026-04-27 18:42 | 35.50843 | 25.36075 | 6220 ft | 265 kts | 158° |
| 2026-04-27 18:43 | 35.49165 | 25.36934 | 5803 ft | 265 kts | 157° |
| 2026-04-27 18:43 | 35.47443 | 25.37817 | 5372 ft | 263 kts | 157° |
| 2026-04-27 18:43 | 35.45846 | 25.38636 | 5279 ft | 240 kts | 157° |
| 2026-04-27 18:43 | 35.44399 | 25.39471 | 5187 ft | 221 kts | 149° |
| 2026-04-27 18:44 | 35.43107 | 25.40363 | 5112 ft | 208 kts | 150° |
| 2026-04-27 18:44 | 35.41856 | 25.41218 | 5014 ft | 204 kts | 150° |
| 2026-04-27 18:44 | 35.40620 | 25.42068 | 4909 ft | 204 kts | 149° |
| 2026-04-27 18:44 | 35.39384 | 25.42919 | 4812 ft | 203 kts | 149° |
| 2026-04-27 18:45 | 35.38134 | 25.43726 | 4700 ft | 204 kts | 160° |
| 2026-04-27 18:45 | 35.36750 | 25.43826 | 4609 ft | 201 kts | 196° |
| 2026-04-27 18:45 | 35.35574 | 25.42965 | 4386 ft | 199 kts | 232° |
| 2026-04-27 18:45 | 35.34921 | 25.41521 | 4084 ft | 194 kts | 248° |
| 2026-04-27 18:46 | 35.34355 | 25.40026 | 3797 ft | 193 kts | 248° |
| 2026-04-27 18:46 | 35.33786 | 25.38543 | 3511 ft | 192 kts | 248° |
| 2026-04-27 18:46 | 35.33220 | 25.37069 | 3234 ft | 191 kts | 247° |
| 2026-04-27 18:46 | 35.32832 | 25.35543 | 3042 ft | 187 kts | 266° |
| 2026-04-27 18:47 | 35.32867 | 25.33968 | 2934 ft | 187 kts | 277° |
| 2026-04-27 18:47 | 35.32981 | 25.32392 | 2546 ft | 184 kts | 277° |
| 2026-04-27 18:47 | 35.33087 | 25.30873 | 2225 ft | 173 kts | 277° |
| 2026-04-27 18:47 | 35.33181 | 25.29458 | 2017 ft | 158 kts | 277° |
| 2026-04-27 18:48 | 35.33264 | 25.28175 | 1779 ft | 145 kts | 277° |
| 2026-04-27 18:48 | 35.33343 | 25.26977 | 1562 ft | 138 kts | 276° |
| 2026-04-27 18:48 | 35.33422 | 25.25830 | 1362 ft | 134 kts | 276° |
| 2026-04-27 18:48 | 35.33500 | 25.24702 | 1157 ft | 132 kts | 276° |
| 2026-04-27 18:49 | 35.33580 | 25.23580 | 961 ft | 132 kts | 275° |
| 2026-04-27 18:49 | 35.33663 | 25.22468 | 762 ft | 131 kts | 275° |
| 2026-04-27 18:49 | 35.33750 | 25.21355 | 549 ft | 129 kts | 276° |
| 2026-04-27 18:49 | 35.33821 | 25.20256 | 370 ft | 129 kts | 274° |
| 2026-04-27 18:50 | 35.33896 | 25.19167 | 166 ft | 128 kts | 275° |
| 2026-04-27 18:50 | 35.33966 | 25.18165 | 94 ft | 101 kts | 275° |
| 2026-04-27 18:50 | 35.34009 | 25.17538 | 91 ft | 63 kts | 275° |
| 2026-04-27 18:50 | 35.34020 | 25.17153 | 91 ft | 21 kts | 241° |
| 2026-04-27 18:51 | 35.33969 | 25.17054 | 90 ft | 10 kts | 213° |
| 2026-04-27 18:51 | 35.33940 | 25.17082 | 90 ft | 5 kts | 97° |
| 2026-04-27 18:51 | 35.33937 | 25.17121 | 90 ft | 4 kts | 95° |
| 2026-04-27 18:51 | 35.33934 | 25.17166 | 90 ft | 6 kts | 91° |
| 2026-04-27 18:52 | 35.33931 | 25.17227 | 91 ft | 8 kts | 95° |
| 2026-04-27 18:52 | 35.33925 | 25.17307 | 93 ft | 10 kts | 95° |
| 2026-04-27 18:52 | 35.33918 | 25.17406 | 91 ft | 13 kts | 94° |
| 2026-04-27 18:53 | 35.33857 | 25.17496 | 92 ft | 5 kts | 208° |
| 2026-04-27 18:53 | 35.33850 | 25.17474 | 92 ft | 2 kts | 265° |
| 2026-04-27 18:53 | 35.33853 | 25.17458 | 91 ft | 2 kts | 289° |
| 2026-04-27 18:53 | 35.33860 | 25.17446 | 91 ft | 2 kts | 308° |
| 2026-04-27 18:54 | 35.33874 | 25.17428 | 91 ft | 2 kts | 315° |
| 2026-04-27 18:54 | 35.33877 | 25.17425 | 91 ft | 0 kts | 316° |